Terminal Aerodrome Forecast
Issued by NWS

Home | Current Version | Previous Version | Text Only | Print | Product List | Glossary On
Versions: 1 2 3 4 5 6 7 8 9 10 11 12 13
000
FTUS45 KRIW 230500
TAFLND
TAF
KLND 230520Z 2306/2406 23025G40KT P6SM VCSH SCT050 BKN070
     FM231000 26020G30KT P6SM SCT070 BKN100
     FM240100 26010KT P6SM SCT100=

USA.gov is the U.S. government's official web portal to all federal, state and local government web resources and services.